»·PEaware :: N923E L52-L88

N923E :: L52-L88

FLIGHT INFORMATION

Flight Status: Arrived
Operator: Privately registered:
United States
More flights under this callsign
Pilot: Louden S. (25159)
Aircraft: PIPER PA-22 TRI PACER/CARIBBEAN
(PA22)
More flights by this aircraft type
Origin: L52 Oceano Co
United States
Destination: L88 New Cuyama
United States
More flights between these airports :: More routes between these airports
Route: DIRECT
File this flight plan on PilotEdge
Remarks:
Altitude:
(Current/Filed)
5,500ft
Speed:
(Current/Filed)
120kts
Departed: 23-Jun-19 04:29 PM
Arrived: 23-Jun-19 05:12 PM
Distance/Time
Traveled:
47nm/0:43
Distance/Time
To Go:
Arrived

Flight Plot

Page will automatically refresh every two minutes.


Map Options




Map Legend


Flown Route
Filed Route
Departure Airport
Arrival Airport
Navaid (VOR, NDB)
Fix

Horizontal Profiles

Position Reports

Time Latitude Longitude Heading Altitude Ground
Speed
23-Jun-19 16:20 35.102274 -120.622530 210 17ft 0kts
23-Jun-19 16:21 35.102274 -120.622530 210 17ft 0kts
23-Jun-19 16:22 35.102274 -120.622530 211 17ft 0kts
23-Jun-19 16:23 35.102274 -120.622530 211 17ft 0kts
23-Jun-19 16:24 35.102274 -120.622531 211 17ft 0kts
23-Jun-19 16:25 35.102274 -120.622531 211 17ft 0kts
23-Jun-19 16:26 35.102274 -120.622531 211 17ft 0kts
23-Jun-19 16:27 35.102481 -120.623074 303 16ft 14kts
23-Jun-19 16:28 35.102536 -120.624193 123 15ft 51kts
23-Jun-19 16:29 35.096281 -120.610017 98 789ft 81kts
23-Jun-19 16:31 35.093727 -120.593983 104 1654ft 82kts
23-Jun-19 16:32 35.089860 -120.579169 113 2487ft 77kts
23-Jun-19 16:33 35.086392 -120.562514 102 3179ft 87kts
23-Jun-19 16:34 35.083278 -120.545393 104 3920ft 85kts
23-Jun-19 16:35 35.080425 -120.528785 89 4580ft 88kts
23-Jun-19 16:36 35.079621 -120.510281 95 5058ft 100kts
23-Jun-19 16:37 35.078492 -120.489061 89 5246ft 115kts
23-Jun-19 16:38 35.076052 -120.466639 101 5428ft 117kts
23-Jun-19 16:39 35.073577 -120.452593 100 5481ft 119kts
23-Jun-19 16:40 35.069814 -120.429187 103 5577ft 118kts
23-Jun-19 16:41 35.065901 -120.403877 99 5647ft 119kts
23-Jun-19 16:42 35.063014 -120.379376 98 5751ft 118kts
23-Jun-19 16:43 35.059075 -120.354991 105 5799ft 121kts
23-Jun-19 16:44 35.054127 -120.332062 100 5877ft 120kts
23-Jun-19 16:45 35.049059 -120.307716 114 5955ft 120kts
23-Jun-19 16:46 35.042892 -120.284090 102 6026ft 121kts
23-Jun-19 16:47 35.039030 -120.259148 100 6097ft 120kts
23-Jun-19 16:48 35.035921 -120.235412 93 6138ft 120kts
23-Jun-19 16:49 35.035831 -120.212008 89 6169ft 120kts
23-Jun-19 16:50 35.035119 -120.189407 94 6209ft 121kts
23-Jun-19 16:51 35.029203 -120.166408 109 6246ft 119kts
23-Jun-19 16:51 35.024575 -120.146420 105 6304ft 119kts
23-Jun-19 16:53 35.017767 -120.118877 111 6347ft 120kts
23-Jun-19 16:54 35.010701 -120.096396 103 6400ft 121kts
23-Jun-19 16:54 35.006884 -120.076175 102 6377ft 122kts
23-Jun-19 16:55 35.003658 -120.051576 95 6364ft 120kts
23-Jun-19 16:57 35.000456 -120.024121 99 6281ft 121kts
23-Jun-19 16:57 34.998229 -120.004381 95 5972ft 117kts
23-Jun-19 16:58 34.996690 -119.980153 97 5725ft 113kts
23-Jun-19 16:59 34.995069 -119.957844 101 5426ft 115kts
23-Jun-19 17:00 34.990723 -119.933314 101 5322ft 126kts
23-Jun-19 17:01 34.986635 -119.908482 99 5287ft 125kts
23-Jun-19 17:02 34.983610 -119.882832 97 5171ft 126kts
23-Jun-19 17:03 34.980572 -119.858001 100 4751ft 125kts
23-Jun-19 17:04 34.975892 -119.833199 102 4083ft 122kts
23-Jun-19 17:05 34.971807 -119.808460 99 3442ft 122kts
23-Jun-19 17:06 34.967575 -119.784460 103 2949ft 117kts
23-Jun-19 17:07 34.962485 -119.761335 106 2759ft 106kts
23-Jun-19 17:08 34.957412 -119.736463 103 2635ft 128kts
23-Jun-19 17:09 34.950054 -119.710037 115 2334ft 123kts
23-Jun-19 17:10 34.943044 -119.693081 115 2179ft 59kts
23-Jun-19 17:11 34.941256 -119.688678 292 2163ft 33kts
23-Jun-19 17:12 34.943361 -119.690838 56 2155ft 9kts
23-Jun-19 17:13 34.943371 -119.690720 118 2155ft 0kts
23-Jun-19 17:14 34.943371 -119.690720 118 2155ft 0kts

Navigation Log

Ident Type
Flight plan parsing failed, navigation log unavailable